sensor_id;sensor_type;location;lat;lon;timestamp;temperature;humidity
26964;DHT22;14521;48.148;-1.656;2024-03-23T00:54:33;19.20;88.50
26964;DHT22;14521;48.148;-1.656;2024-03-23T00:57:55;19.20;88.50
26964;DHT22;14521;48.148;-1.656;2024-03-23T01:01:16;19.20;88.50
26964;DHT22;14521;48.148;-1.656;2024-03-23T01:04:37;19.20;88.50
26964;DHT22;14521;48.148;-1.656;2024-03-23T01:07:58;19.20;88.50
26964;DHT22;14521;48.148;-1.656;2024-03-23T01:11:20;19.20;88.50
26964;DHT22;14521;48.148;-1.656;2024-03-23T01:14:41;19.20;88.40
26964;DHT22;14521;48.148;-1.656;2024-03-23T01:18:02;19.20;88.50
26964;DHT22;14521;48.148;-1.656;2024-03-23T01:21:24;19.20;88.50
26964;DHT22;14521;48.148;-1.656;2024-03-23T01:24:45;19.20;88.50
26964;DHT22;14521;48.148;-1.656;2024-03-23T01:28:07;19.20;88.50
26964;DHT22;14521;48.148;-1.656;2024-03-23T01:31:28;19.20;88.50
26964;DHT22;14521;48.148;-1.656;2024-03-23T01:34:50;19.20;88.50
26964;DHT22;14521;48.148;-1.656;2024-03-23T01:38:11;19.20;88.40
26964;DHT22;14521;48.148;-1.656;2024-03-23T01:41:32;19.20;88.40
26964;DHT22;14521;48.148;-1.656;2024-03-23T01:44:53;19.20;88.40
26964;DHT22;14521;48.148;-1.656;2024-03-23T01:48:15;19.20;88.30
26964;DHT22;14521;48.148;-1.656;2024-03-23T01:51:36;19.20;88.40
26964;DHT22;14521;48.148;-1.656;2024-03-23T01:54:58;19.10;88.30
26964;DHT22;14521;48.148;-1.656;2024-03-23T01:58:19;19.10;88.30
26964;DHT22;14521;48.148;-1.656;2024-03-23T02:01:41;19.10;88.30
26964;DHT22;14521;48.148;-1.656;2024-03-23T02:05:02;19.10;88.40
26964;DHT22;14521;48.148;-1.656;2024-03-23T02:08:24;19.10;88.40
26964;DHT22;14521;48.148;-1.656;2024-03-23T02:11:45;19.10;88.40
26964;DHT22;14521;48.148;-1.656;2024-03-23T02:15:07;19.10;88.30
26964;DHT22;14521;48.148;-1.656;2024-03-23T02:18:29;19.10;88.10
26964;DHT22;14521;48.148;-1.656;2024-03-23T02:21:51;19.10;88.30
26964;DHT22;14521;48.148;-1.656;2024-03-23T02:25:12;19.10;88.20
26964;DHT22;14521;48.148;-1.656;2024-03-23T02:28:33;19.10;88.10
26964;DHT22;14521;48.148;-1.656;2024-03-23T02:31:55;19.10;88.10
26964;DHT22;14521;48.148;-1.656;2024-03-23T02:35:16;19.10;88.00
26964;DHT22;14521;48.148;-1.656;2024-03-23T02:38:37;19.10;88.00
26964;DHT22;14521;48.148;-1.656;2024-03-23T02:41:58;19.10;88.00
26964;DHT22;14521;48.148;-1.656;2024-03-23T02:45:20;19.00;87.90
26964;DHT22;14521;48.148;-1.656;2024-03-23T02:48:41;19.00;87.90
26964;DHT22;14521;48.148;-1.656;2024-03-23T02:52:03;19.00;87.70
26964;DHT22;14521;48.148;-1.656;2024-03-23T02:55:24;19.00;87.80
26964;DHT22;14521;48.148;-1.656;2024-03-23T02:58:45;19.00;87.70
26964;DHT22;14521;48.148;-1.656;2024-03-23T03:02:07;19.00;87.70
26964;DHT22;14521;48.148;-1.656;2024-03-23T03:05:28;19.00;87.60
26964;DHT22;14521;48.148;-1.656;2024-03-23T03:08:49;19.00;87.60
26964;DHT22;14521;48.148;-1.656;2024-03-23T03:12:11;19.00;87.50
26964;DHT22;14521;48.148;-1.656;2024-03-23T03:15:32;19.00;87.60
26964;DHT22;14521;48.148;-1.656;2024-03-23T03:18:54;19.00;87.60
26964;DHT22;14521;48.148;-1.656;2024-03-23T03:22:15;19.00;87.60
26964;DHT22;14521;48.148;-1.656;2024-03-23T03:25:37;19.00;87.70
26964;DHT22;14521;48.148;-1.656;2024-03-23T03:28:58;19.00;87.60
26964;DHT22;14521;48.148;-1.656;2024-03-23T03:32:19;19.00;87.60
26964;DHT22;14521;48.148;-1.656;2024-03-23T03:35:40;19.00;87.50
26964;DHT22;14521;48.148;-1.656;2024-03-23T03:39:02;19.00;87.50
26964;DHT22;14521;48.148;-1.656;2024-03-23T03:42:27;19.00;87.40
26964;DHT22;14521;48.148;-1.656;2024-03-23T03:45:55;19.00;87.40
26964;DHT22;14521;48.148;-1.656;2024-03-23T03:49:17;18.90;87.20
26964;DHT22;14521;48.148;-1.656;2024-03-23T03:52:38;18.90;87.20
26964;DHT22;14521;48.148;-1.656;2024-03-23T03:56:03;18.90;87.10
26964;DHT22;14521;48.148;-1.656;2024-03-23T03:59:24;18.90;87.00
26964;DHT22;14521;48.148;-1.656;2024-03-23T04:02:45;18.90;87.10
26964;DHT22;14521;48.148;-1.656;2024-03-23T04:06:07;18.90;87.00
26964;DHT22;14521;48.148;-1.656;2024-03-23T04:09:29;18.90;86.90
26964;DHT22;14521;48.148;-1.656;2024-03-23T04:12:51;18.90;86.90
26964;DHT22;14521;48.148;-1.656;2024-03-23T04:16:12;18.90;86.80
26964;DHT22;14521;48.148;-1.656;2024-03-23T04:19:33;18.90;86.70
26964;DHT22;14521;48.148;-1.656;2024-03-23T04:22:55;18.90;86.60
26964;DHT22;14521;48.148;-1.656;2024-03-23T04:26:16;18.90;86.70
26964;DHT22;14521;48.148;-1.656;2024-03-23T04:29:38;18.90;86.70
26964;DHT22;14521;48.148;-1.656;2024-03-23T04:32:59;18.90;86.70
26964;DHT22;14521;48.148;-1.656;2024-03-23T04:36:22;18.80;86.60
26964;DHT22;14521;48.148;-1.656;2024-03-23T04:39:43;18.80;86.50
26964;DHT22;14521;48.148;-1.656;2024-03-23T04:43:04;18.80;86.40
26964;DHT22;14521;48.148;-1.656;2024-03-23T04:46:26;18.80;86.40
26964;DHT22;14521;48.148;-1.656;2024-03-23T04:49:48;18.80;86.60
26964;DHT22;14521;48.148;-1.656;2024-03-23T04:53:10;18.80;86.70
26964;DHT22;14521;48.148;-1.656;2024-03-23T04:56:31;18.90;86.80
26964;DHT22;14521;48.148;-1.656;2024-03-23T04:59:53;18.80;86.40
26964;DHT22;14521;48.148;-1.656;2024-03-23T05:03:14;18.90;86.60
26964;DHT22;14521;48.148;-1.656;2024-03-23T05:06:36;18.90;86.50
26964;DHT22;14521;48.148;-1.656;2024-03-23T05:09:57;18.90;86.50
26964;DHT22;14521;48.148;-1.656;2024-03-23T05:13:19;18.90;86.60
26964;DHT22;14521;48.148;-1.656;2024-03-23T05:16:40;18.80;86.40
26964;DHT22;14521;48.148;-1.656;2024-03-23T05:20:01;18.80;86.40
26964;DHT22;14521;48.148;-1.656;2024-03-23T05:23:25;18.80;86.30
26964;DHT22;14521;48.148;-1.656;2024-03-23T05:26:46;18.80;86.40
26964;DHT22;14521;48.148;-1.656;2024-03-23T05:30:07;18.80;86.30
26964;DHT22;14521;48.148;-1.656;2024-03-23T05:33:30;18.80;86.20
26964;DHT22;14521;48.148;-1.656;2024-03-23T05:36:51;18.80;86.30
26964;DHT22;14521;48.148;-1.656;2024-03-23T05:40:13;18.80;86.30
26964;DHT22;14521;48.148;-1.656;2024-03-23T05:43:36;18.90;86.40
26964;DHT22;14521;48.148;-1.656;2024-03-23T05:46:57;18.80;86.10
26964;DHT22;14521;48.148;-1.656;2024-03-23T05:50:19;18.90;86.10
26964;DHT22;14521;48.148;-1.656;2024-03-23T05:53:40;18.90;86.00
26964;DHT22;14521;48.148;-1.656;2024-03-23T05:57:02;18.90;85.90
26964;DHT22;14521;48.148;-1.656;2024-03-23T06:00:23;18.90;86.70
26964;DHT22;14521;48.148;-1.656;2024-03-23T06:03:47;18.90;85.90
26964;DHT22;14521;48.148;-1.656;2024-03-23T06:07:08;18.90;85.80
26964;DHT22;14521;48.148;-1.656;2024-03-23T06:10:34;18.90;85.80
26964;DHT22;14521;48.148;-1.656;2024-03-23T06:13:56;18.90;85.80
26964;DHT22;14521;48.148;-1.656;2024-03-23T06:17:17;18.90;85.70
26964;DHT22;14521;48.148;-1.656;2024-03-23T06:20:39;18.90;85.60
26964;DHT22;14521;48.148;-1.656;2024-03-23T06:24:00;18.90;85.60
26964;DHT22;14521;48.148;-1.656;2024-03-23T06:27:22;19.00;85.70
26964;DHT22;14521;48.148;-1.656;2024-03-23T06:30:43;19.00;85.50
26964;DHT22;14521;48.148;-1.656;2024-03-23T06:34:04;19.00;85.50
26964;DHT22;14521;48.148;-1.656;2024-03-23T06:37:26;19.00;84.60
26964;DHT22;14521;48.148;-1.656;2024-03-23T06:40:47;18.90;84.00
26964;DHT22;14521;48.148;-1.656;2024-03-23T06:44:11;18.90;84.20
26964;DHT22;14521;48.148;-1.656;2024-03-23T06:47:33;18.90;84.30
26964;DHT22;14521;48.148;-1.656;2024-03-23T06:50:57;18.90;84.20
26964;DHT22;14521;48.148;-1.656;2024-03-23T06:54:20;18.80;84.50
26964;DHT22;14521;48.148;-1.656;2024-03-23T06:57:41;18.70;85.10
26964;DHT22;14521;48.148;-1.656;2024-03-23T07:01:03;18.90;85.90
26964;DHT22;14521;48.148;-1.656;2024-03-23T07:04:24;19.20;86.20
26964;DHT22;14521;48.148;-1.656;2024-03-23T07:07:45;19.30;87.00
26964;DHT22;14521;48.148;-1.656;2024-03-23T07:11:06;19.50;86.30
26964;DHT22;14521;48.148;-1.656;2024-03-23T07:14:28;19.60;86.00
26964;DHT22;14521;48.148;-1.656;2024-03-23T07:17:49;19.70;85.90
26964;DHT22;14521;48.148;-1.656;2024-03-23T07:21:10;19.70;86.30
26964;DHT22;14521;48.148;-1.656;2024-03-23T07:24:32;19.80;86.00
26964;DHT22;14521;48.148;-1.656;2024-03-23T07:27:53;19.90;86.20
26964;DHT22;14521;48.148;-1.656;2024-03-23T07:31:15;19.90;86.00
26964;DHT22;14521;48.148;-1.656;2024-03-23T07:34:36;20.00;86.00
26964;DHT22;14521;48.148;-1.656;2024-03-23T07:37:58;19.90;86.00
26964;DHT22;14521;48.148;-1.656;2024-03-23T07:41:21;20.00;86.20
26964;DHT22;14521;48.148;-1.656;2024-03-23T07:44:42;20.00;86.50
26964;DHT22;14521;48.148;-1.656;2024-03-23T07:48:04;20.10;87.30
26964;DHT22;14521;48.148;-1.656;2024-03-23T07:51:26;20.20;84.10
26964;DHT22;14521;48.148;-1.656;2024-03-23T07:54:47;19.90;82.70
26964;DHT22;14521;48.148;-1.656;2024-03-23T07:58:08;19.60;83.70
26964;DHT22;14521;48.148;-1.656;2024-03-23T08:01:30;19.50;85.60
26964;DHT22;14521;48.148;-1.656;2024-03-23T08:04:51;19.40;85.30
26964;DHT22;14521;48.148;-1.656;2024-03-23T08:08:13;19.40;85.70
26964;DHT22;14521;48.148;-1.656;2024-03-23T08:11:34;19.60;86.20
26964;DHT22;14521;48.148;-1.656;2024-03-23T08:14:56;19.70;85.60
26964;DHT22;14521;48.148;-1.656;2024-03-23T08:18:17;19.70;85.50
26964;DHT22;14521;48.148;-1.656;2024-03-23T08:21:38;19.80;85.20
26964;DHT22;14521;48.148;-1.656;2024-03-23T08:25:00;19.80;85.70
26964;DHT22;14521;48.148;-1.656;2024-03-23T08:28:21;19.80;85.10
26964;DHT22;14521;48.148;-1.656;2024-03-23T08:31:42;19.80;84.80
26964;DHT22;14521;48.148;-1.656;2024-03-23T08:35:04;19.80;84.70
26964;DHT22;14521;48.148;-1.656;2024-03-23T08:38:27;19.80;84.70
26964;DHT22;14521;48.148;-1.656;2024-03-23T08:41:48;19.80;84.70
26964;DHT22;14521;48.148;-1.656;2024-03-23T08:45:11;19.80;84.30
26964;DHT22;14521;48.148;-1.656;2024-03-23T08:48:37;19.80;84.40
26964;DHT22;14521;48.148;-1.656;2024-03-23T08:51:59;19.80;84.20
26964;DHT22;14521;48.148;-1.656;2024-03-23T08:55:20;19.70;84.10
26964;DHT22;14521;48.148;-1.656;2024-03-23T08:58:41;19.70;84.00
26964;DHT22;14521;48.148;-1.656;2024-03-23T09:02:03;19.70;83.90
26964;DHT22;14521;48.148;-1.656;2024-03-23T09:05:25;19.70;83.90
26964;DHT22;14521;48.148;-1.656;2024-03-23T09:08:47;19.70;83.80
26964;DHT22;14521;48.148;-1.656;2024-03-23T09:12:08;19.60;83.80
26964;DHT22;14521;48.148;-1.656;2024-03-23T09:15:29;19.60;83.90
26964;DHT22;14521;48.148;-1.656;2024-03-23T09:18:52;19.70;83.80
26964;DHT22;14521;48.148;-1.656;2024-03-23T09:22:13;19.60;83.80
26964;DHT22;14521;48.148;-1.656;2024-03-23T09:25:38;19.50;83.80
26964;DHT22;14521;48.148;-1.656;2024-03-23T09:29:00;19.60;83.80
26964;DHT22;14521;48.148;-1.656;2024-03-23T09:32:21;19.60;83.70
26964;DHT22;14521;48.148;-1.656;2024-03-23T09:35:43;19.60;83.60
26964;DHT22;14521;48.148;-1.656;2024-03-23T09:39:07;19.60;83.50
26964;DHT22;14521;48.148;-1.656;2024-03-23T09:42:30;19.60;83.50
26964;DHT22;14521;48.148;-1.656;2024-03-23T09:45:52;19.50;83.30
26964;DHT22;14521;48.148;-1.656;2024-03-23T09:49:14;19.60;83.30
26964;DHT22;14521;48.148;-1.656;2024-03-23T09:52:35;19.50;83.10
26964;DHT22;14521;48.148;-1.656;2024-03-23T09:55:57;19.50;83.20
26964;DHT22;14521;48.148;-1.656;2024-03-23T09:59:18;19.50;83.10
26964;DHT22;14521;48.148;-1.656;2024-03-23T10:02:39;19.50;83.10
26964;DHT22;14521;48.148;-1.656;2024-03-23T10:06:02;19.50;83.90
26964;DHT22;14521;48.148;-1.656;2024-03-23T10:09:26;19.50;83.00
26964;DHT22;14521;48.148;-1.656;2024-03-23T10:12:48;19.40;83.00
26964;DHT22;14521;48.148;-1.656;2024-03-23T10:16:11;19.40;82.80
26964;DHT22;14521;48.148;-1.656;2024-03-23T10:19:33;19.50;82.70
26964;DHT22;14521;48.148;-1.656;2024-03-23T10:22:54;19.40;82.60
26964;DHT22;14521;48.148;-1.656;2024-03-23T10:26:22;19.40;82.60
26964;DHT22;14521;48.148;-1.656;2024-03-23T10:29:45;19.40;82.50
26964;DHT22;14521;48.148;-1.656;2024-03-23T10:33:07;19.50;82.50
26964;DHT22;14521;48.148;-1.656;2024-03-23T10:36:30;19.40;82.80
26964;DHT22;14521;48.148;-1.656;2024-03-23T10:39:51;19.40;82.50
26964;DHT22;14521;48.148;-1.656;2024-03-23T10:43:13;19.40;82.60
26964;DHT22;14521;48.148;-1.656;2024-03-23T10:46:35;19.40;83.70
26964;DHT22;14521;48.148;-1.656;2024-03-23T10:49:58;19.40;83.80
26964;DHT22;14521;48.148;-1.656;2024-03-23T10:53:22;19.40;83.10
26964;DHT22;14521;48.148;-1.656;2024-03-23T10:56:46;19.40;83.00
26964;DHT22;14521;48.148;-1.656;2024-03-23T11:00:09;19.40;82.60
26964;DHT22;14521;48.148;-1.656;2024-03-23T11:03:36;19.40;82.40
26964;DHT22;14521;48.148;-1.656;2024-03-23T11:06:58;19.40;82.20
26964;DHT22;14521;48.148;-1.656;2024-03-23T11:10:26;19.40;82.20
26964;DHT22;14521;48.148;-1.656;2024-03-23T11:13:51;19.40;82.60
26964;DHT22;14521;48.148;-1.656;2024-03-23T11:17:18;19.40;82.30
26964;DHT22;14521;48.148;-1.656;2024-03-23T11:20:40;19.40;82.20
26964;DHT22;14521;48.148;-1.656;2024-03-23T11:24:14;19.30;82.00
26964;DHT22;14521;48.148;-1.656;2024-03-23T11:27:36;19.30;82.00
26964;DHT22;14521;48.148;-1.656;2024-03-23T11:30:57;19.30;82.00
26964;DHT22;14521;48.148;-1.656;2024-03-23T11:34:19;19.30;82.10
26964;DHT22;14521;48.148;-1.656;2024-03-23T11:37:41;19.30;82.30
26964;DHT22;14521;48.148;-1.656;2024-03-23T11:41:02;19.30;82.30
26964;DHT22;14521;48.148;-1.656;2024-03-23T11:44:27;19.30;82.40
26964;DHT22;14521;48.148;-1.656;2024-03-23T11:47:48;19.20;82.40
26964;DHT22;14521;48.148;-1.656;2024-03-23T11:51:10;19.30;82.50
26964;DHT22;14521;48.148;-1.656;2024-03-23T11:54:32;19.30;82.40
26964;DHT22;14521;48.148;-1.656;2024-03-23T11:57:53;19.30;82.60
26964;DHT22;14521;48.148;-1.656;2024-03-23T12:01:14;19.20;82.60
26964;DHT22;14521;48.148;-1.656;2024-03-23T12:04:40;19.30;82.70
26964;DHT22;14521;48.148;-1.656;2024-03-23T12:08:30;19.20;82.40
26964;DHT22;14521;48.148;-1.656;2024-03-23T12:11:51;19.20;82.50
26964;DHT22;14521;48.148;-1.656;2024-03-23T12:15:15;19.20;82.50
26964;DHT22;14521;48.148;-1.656;2024-03-23T12:18:37;19.30;82.60
26964;DHT22;14521;48.148;-1.656;2024-03-23T12:21:58;19.20;82.60
26964;DHT22;14521;48.148;-1.656;2024-03-23T12:25:19;19.20;82.80
26964;DHT22;14521;48.148;-1.656;2024-03-23T12:28:41;19.20;82.50
26964;DHT22;14521;48.148;-1.656;2024-03-23T12:32:02;19.20;82.40
26964;DHT22;14521;48.148;-1.656;2024-03-23T12:35:24;19.20;82.30
26964;DHT22;14521;48.148;-1.656;2024-03-23T12:38:45;19.10;82.40
26964;DHT22;14521;48.148;-1.656;2024-03-23T12:42:06;19.10;82.20
26964;DHT22;14521;48.148;-1.656;2024-03-23T12:45:28;19.10;82.30
26964;DHT22;14521;48.148;-1.656;2024-03-23T12:48:49;19.10;82.40
26964;DHT22;14521;48.148;-1.656;2024-03-23T12:52:10;19.20;82.40
26964;DHT22;14521;48.148;-1.656;2024-03-23T12:55:37;19.20;82.40
26964;DHT22;14521;48.148;-1.656;2024-03-23T12:58:58;19.20;82.50
26964;DHT22;14521;48.148;-1.656;2024-03-23T13:02:21;19.20;82.60
26964;DHT22;14521;48.148;-1.656;2024-03-23T13:05:43;19.20;82.50
26964;DHT22;14521;48.148;-1.656;2024-03-23T13:09:04;19.20;82.40
26964;DHT22;14521;48.148;-1.656;2024-03-23T13:12:26;19.20;83.20
26964;DHT22;14521;48.148;-1.656;2024-03-23T13:15:51;19.20;82.20
26964;DHT22;14521;48.148;-1.656;2024-03-23T13:19:12;19.20;82.30
26964;DHT22;14521;48.148;-1.656;2024-03-23T13:22:33;19.20;82.30
26964;DHT22;14521;48.148;-1.656;2024-03-23T13:25:55;19.20;82.10
26964;DHT22;14521;48.148;-1.656;2024-03-23T13:29:17;19.20;82.10
26964;DHT22;14521;48.148;-1.656;2024-03-23T13:32:38;19.10;82.10
26964;DHT22;14521;48.148;-1.656;2024-03-23T13:36:00;19.10;82.00
26964;DHT22;14521;48.148;-1.656;2024-03-23T13:39:21;19.10;81.80
26964;DHT22;14521;48.148;-1.656;2024-03-23T13:42:42;19.10;81.80
26964;DHT22;14521;48.148;-1.656;2024-03-23T13:46:04;19.10;82.00
26964;DHT22;14521;48.148;-1.656;2024-03-23T13:52:47;19.10;81.70
26964;DHT22;14521;48.148;-1.656;2024-03-23T13:56:08;19.10;81.70
26964;DHT22;14521;48.148;-1.656;2024-03-23T13:59:30;19.10;81.90
26964;DHT22;14521;48.148;-1.656;2024-03-23T14:02:51;19.10;81.90
26964;DHT22;14521;48.148;-1.656;2024-03-23T14:06:12;19.10;82.10
26964;DHT22;14521;48.148;-1.656;2024-03-23T14:09:34;19.10;81.90
26964;DHT22;14521;48.148;-1.656;2024-03-23T14:12:55;19.10;81.90
26964;DHT22;14521;48.148;-1.656;2024-03-23T14:16:16;19.10;81.80
26964;DHT22;14521;48.148;-1.656;2024-03-23T14:19:37;19.10;82.00
26964;DHT22;14521;48.148;-1.656;2024-03-23T14:22:59;19.10;81.90
26964;DHT22;14521;48.148;-1.656;2024-03-23T14:26:21;19.10;81.90
26964;DHT22;14521;48.148;-1.656;2024-03-23T14:29:45;19.10;82.00
26964;DHT22;14521;48.148;-1.656;2024-03-23T14:33:08;19.10;82.00
26964;DHT22;14521;48.148;-1.656;2024-03-23T14:36:29;19.10;82.20
26964;DHT22;14521;48.148;-1.656;2024-03-23T14:39:51;19.10;81.90
26964;DHT22;14521;48.148;-1.656;2024-03-23T14:43:12;19.00;81.70
26964;DHT22;14521;48.148;-1.656;2024-03-23T14:46:35;19.00;82.00
26964;DHT22;14521;48.148;-1.656;2024-03-23T14:49:57;19.10;81.90
26964;DHT22;14521;48.148;-1.656;2024-03-23T14:53:19;19.10;82.10
26964;DHT22;14521;48.148;-1.656;2024-03-23T14:56:41;19.10;81.90
26964;DHT22;14521;48.148;-1.656;2024-03-23T15:00:02;19.10;81.90
26964;DHT22;14521;48.148;-1.656;2024-03-23T15:03:26;19.10;81.90
26964;DHT22;14521;48.148;-1.656;2024-03-23T15:06:47;19.10;81.80
26964;DHT22;14521;48.148;-1.656;2024-03-23T15:10:10;19.10;81.90
26964;DHT22;14521;48.148;-1.656;2024-03-23T15:13:35;19.10;81.80
26964;DHT22;14521;48.148;-1.656;2024-03-23T15:16:57;19.10;81.90
26964;DHT22;14521;48.148;-1.656;2024-03-23T15:20:18;19.10;81.90
26964;DHT22;14521;48.148;-1.656;2024-03-23T15:23:40;19.10;81.70
26964;DHT22;14521;48.148;-1.656;2024-03-23T15:27:03;19.10;81.90
26964;DHT22;14521;48.148;-1.656;2024-03-23T15:30:24;19.10;81.60
26964;DHT22;14521;48.148;-1.656;2024-03-23T15:33:46;19.10;81.80
26964;DHT22;14521;48.148;-1.656;2024-03-23T15:37:07;19.10;81.60
26964;DHT22;14521;48.148;-1.656;2024-03-23T15:40:28;19.10;81.80
26964;DHT22;14521;48.148;-1.656;2024-03-23T15:43:51;19.00;82.00
26964;DHT22;14521;48.148;-1.656;2024-03-23T15:47:12;19.00;81.80
26964;DHT22;14521;48.148;-1.656;2024-03-23T15:50:33;19.00;81.90
26964;DHT22;14521;48.148;-1.656;2024-03-23T15:53:55;19.00;82.00
26964;DHT22;14521;48.148;-1.656;2024-03-23T15:57:18;19.00;82.10
26964;DHT22;14521;48.148;-1.656;2024-03-23T16:00:39;19.00;82.10
26964;DHT22;14521;48.148;-1.656;2024-03-23T16:04:01;19.00;82.20
26964;DHT22;14521;48.148;-1.656;2024-03-23T16:07:22;19.00;82.30
26964;DHT22;14521;48.148;-1.656;2024-03-23T16:10:44;19.00;82.00
26964;DHT22;14521;48.148;-1.656;2024-03-23T16:14:05;19.00;81.70
26964;DHT22;14521;48.148;-1.656;2024-03-23T16:17:26;19.00;82.30
26964;DHT22;14521;48.148;-1.656;2024-03-23T16:24:19;19.00;82.50
26964;DHT22;14521;48.148;-1.656;2024-03-23T16:27:40;19.00;82.50
26964;DHT22;14521;48.148;-1.656;2024-03-23T16:31:07;19.00;82.50
26964;DHT22;14521;48.148;-1.656;2024-03-23T16:34:28;19.00;82.50
26964;DHT22;14521;48.148;-1.656;2024-03-23T16:37:50;18.90;82.30
26964;DHT22;14521;48.148;-1.656;2024-03-23T16:41:12;18.90;82.50
26964;DHT22;14521;48.148;-1.656;2024-03-23T16:44:36;18.90;82.50
26964;DHT22;14521;48.148;-1.656;2024-03-23T16:47:58;18.90;82.70
26964;DHT22;14521;48.148;-1.656;2024-03-23T16:51:19;19.00;82.00
26964;DHT22;14521;48.148;-1.656;2024-03-23T16:54:40;19.00;82.50
26964;DHT22;14521;48.148;-1.656;2024-03-23T16:58:02;19.00;82.50
26964;DHT22;14521;48.148;-1.656;2024-03-23T17:01:23;19.00;82.40
26964;DHT22;14521;48.148;-1.656;2024-03-23T17:04:45;19.00;82.70
26964;DHT22;14521;48.148;-1.656;2024-03-23T17:08:06;19.00;82.80
26964;DHT22;14521;48.148;-1.656;2024-03-23T17:11:28;19.00;82.90
26964;DHT22;14521;48.148;-1.656;2024-03-23T17:14:49;19.00;82.80
26964;DHT22;14521;48.148;-1.656;2024-03-23T17:18:11;19.00;83.00
26964;DHT22;14521;48.148;-1.656;2024-03-23T17:21:33;19.00;83.20
26964;DHT22;14521;48.148;-1.656;2024-03-23T17:24:55;19.00;83.20
26964;DHT22;14521;48.148;-1.656;2024-03-23T17:28:16;19.00;83.30
26964;DHT22;14521;48.148;-1.656;2024-03-23T17:31:37;18.90;83.30
26964;DHT22;14521;48.148;-1.656;2024-03-23T17:34:59;19.00;84.30
26964;DHT22;14521;48.148;-1.656;2024-03-23T17:38:20;19.00;83.40
26964;DHT22;14521;48.148;-1.656;2024-03-23T17:41:42;19.00;83.50
26964;DHT22;14521;48.148;-1.656;2024-03-23T17:45:04;18.90;83.50
26964;DHT22;14521;48.148;-1.656;2024-03-23T17:48:29;18.90;83.60
26964;DHT22;14521;48.148;-1.656;2024-03-23T17:51:50;18.90;83.60
26964;DHT22;14521;48.148;-1.656;2024-03-23T17:55:12;18.90;83.70
26964;DHT22;14521;48.148;-1.656;2024-03-23T17:58:33;18.90;83.80
26964;DHT22;14521;48.148;-1.656;2024-03-23T18:01:55;18.90;84.00
26964;DHT22;14521;48.148;-1.656;2024-03-23T18:05:16;19.00;84.00
26964;DHT22;14521;48.148;-1.656;2024-03-23T18:08:41;19.00;83.80
26964;DHT22;14521;48.148;-1.656;2024-03-23T18:12:02;19.00;83.60
26964;DHT22;14521;48.148;-1.656;2024-03-23T18:15:24;19.00;83.70
26964;DHT22;14521;48.148;-1.656;2024-03-23T18:18:46;19.00;84.00
26964;DHT22;14521;48.148;-1.656;2024-03-23T18:22:08;19.00;83.80
26964;DHT22;14521;48.148;-1.656;2024-03-23T18:25:29;19.00;83.60
26964;DHT22;14521;48.148;-1.656;2024-03-23T18:28:51;19.00;83.50
26964;DHT22;14521;48.148;-1.656;2024-03-23T18:32:12;19.00;83.80
26964;DHT22;14521;48.148;-1.656;2024-03-23T18:35:34;19.10;83.90
26964;DHT22;14521;48.148;-1.656;2024-03-23T18:38:56;19.00;84.80
26964;DHT22;14521;48.148;-1.656;2024-03-23T18:42:17;19.00;85.00
26964;DHT22;14521;48.148;-1.656;2024-03-23T18:45:50;19.00;85.30
26964;DHT22;14521;48.148;-1.656;2024-03-23T18:49:11;19.00;84.30
26964;DHT22;14521;48.148;-1.656;2024-03-23T18:52:33;19.00;87.60
26964;DHT22;14521;48.148;-1.656;2024-03-23T18:55:56;19.00;88.00
26964;DHT22;14521;48.148;-1.656;2024-03-23T18:59:17;19.10;88.80
26964;DHT22;14521;48.148;-1.656;2024-03-23T19:02:38;19.10;89.00
26964;DHT22;14521;48.148;-1.656;2024-03-23T19:06:01;19.10;89.20
26964;DHT22;14521;48.148;-1.656;2024-03-23T19:09:23;19.10;89.60
26964;DHT22;14521;48.148;-1.656;2024-03-23T19:12:49;19.20;90.10
26964;DHT22;14521;48.148;-1.656;2024-03-23T19:16:11;19.20;89.90
26964;DHT22;14521;48.148;-1.656;2024-03-23T19:19:32;19.20;89.80
26964;DHT22;14521;48.148;-1.656;2024-03-23T19:22:53;19.20;89.30
26964;DHT22;14521;48.148;-1.656;2024-03-23T19:26:14;19.20;89.60
26964;DHT22;14521;48.148;-1.656;2024-03-23T19:29:36;19.20;89.80
26964;DHT22;14521;48.148;-1.656;2024-03-23T19:32:57;19.20;90.10
26964;DHT22;14521;48.148;-1.656;2024-03-23T19:36:20;19.10;89.30
26964;DHT22;14521;48.148;-1.656;2024-03-23T19:39:41;19.20;89.60
26964;DHT22;14521;48.148;-1.656;2024-03-23T19:43:03;19.20;88.80
26964;DHT22;14521;48.148;-1.656;2024-03-23T19:46:24;19.10;87.90
26964;DHT22;14521;48.148;-1.656;2024-03-23T19:49:46;19.10;87.30
26964;DHT22;14521;48.148;-1.656;2024-03-23T19:53:07;19.00;88.00
26964;DHT22;14521;48.148;-1.656;2024-03-23T19:56:29;19.10;88.60
26964;DHT22;14521;48.148;-1.656;2024-03-23T19:59:50;19.10;88.40
26964;DHT22;14521;48.148;-1.656;2024-03-23T20:03:11;19.10;88.00
26964;DHT22;14521;48.148;-1.656;2024-03-23T20:06:33;19.10;89.50
26964;DHT22;14521;48.148;-1.656;2024-03-23T20:09:54;19.10;89.10
26964;DHT22;14521;48.148;-1.656;2024-03-23T20:13:15;19.10;90.00
26964;DHT22;14521;48.148;-1.656;2024-03-23T20:16:36;19.20;90.20
26964;DHT22;14521;48.148;-1.656;2024-03-23T20:19:58;19.20;90.30
26964;DHT22;14521;48.148;-1.656;2024-03-23T20:23:20;19.10;90.00
26964;DHT22;14521;48.148;-1.656;2024-03-23T20:26:42;19.10;90.20
26964;DHT22;14521;48.148;-1.656;2024-03-23T20:30:05;19.10;90.30
26964;DHT22;14521;48.148;-1.656;2024-03-23T20:33:28;19.10;90.40
26964;DHT22;14521;48.148;-1.656;2024-03-23T20:36:49;19.10;90.40
26964;DHT22;14521;48.148;-1.656;2024-03-23T20:40:11;19.00;84.30
26964;DHT22;14521;48.148;-1.656;2024-03-23T20:43:33;18.80;84.00
26964;DHT22;14521;48.148;-1.656;2024-03-23T20:46:54;18.80;89.20
26964;DHT22;14521;48.148;-1.656;2024-03-23T20:50:15;18.90;89.70
26964;DHT22;14521;48.148;-1.656;2024-03-23T20:53:37;19.00;90.20
26964;DHT22;14521;48.148;-1.656;2024-03-23T20:56:58;19.00;90.10
26964;DHT22;14521;48.148;-1.656;2024-03-23T21:00:20;19.00;90.00
26964;DHT22;14521;48.148;-1.656;2024-03-23T21:03:41;19.00;89.90
26964;DHT22;14521;48.148;-1.656;2024-03-23T21:07:03;19.10;89.80
26964;DHT22;14521;48.148;-1.656;2024-03-23T21:10:24;19.10;89.60
26964;DHT22;14521;48.148;-1.656;2024-03-23T21:13:47;19.10;89.20
26964;DHT22;14521;48.148;-1.656;2024-03-23T21:17:09;19.10;89.30
26964;DHT22;14521;48.148;-1.656;2024-03-23T21:20:30;19.00;89.00
26964;DHT22;14521;48.148;-1.656;2024-03-23T21:23:52;19.00;88.80
26964;DHT22;14521;48.148;-1.656;2024-03-23T21:27:13;19.00;88.70
26964;DHT22;14521;48.148;-1.656;2024-03-23T21:30:35;19.00;86.30
26964;DHT22;14521;48.148;-1.656;2024-03-23T21:33:57;18.90;86.50
26964;DHT22;14521;48.148;-1.656;2024-03-23T21:37:20;18.90;88.20
26964;DHT22;14521;48.148;-1.656;2024-03-23T21:40:42;19.00;88.10
26964;DHT22;14521;48.148;-1.656;2024-03-23T21:44:12;19.00;88.10
26964;DHT22;14521;48.148;-1.656;2024-03-23T21:47:35;19.00;85.80
26964;DHT22;14521;48.148;-1.656;2024-03-23T21:51:02;18.90;84.40
26964;DHT22;14521;48.148;-1.656;2024-03-23T21:54:24;18.90;87.00